createdAt,value
2023-02-24T00:03:11.324Z,95.1
2023-02-24T00:23:11.037Z,94.6
2023-02-24T00:43:10.976Z,94.1
2023-02-24T01:03:11.059Z,93.3
2023-02-24T01:23:11.190Z,92.7
2023-02-24T01:43:11.164Z,93.1
2023-02-24T02:03:11.301Z,93.4
2023-02-24T02:23:11.328Z,93.1
2023-02-24T02:43:11.345Z,92.8
2023-02-24T03:03:11.483Z,92.5
2023-02-24T03:23:11.372Z,91.7
2023-02-24T03:43:11.495Z,91.9
2023-02-24T04:03:12.356Z,92.4
2023-02-24T04:23:11.469Z,91.1
2023-02-24T04:43:11.626Z,90.6
2023-02-24T05:03:11.651Z,90.6
2023-02-24T05:23:11.712Z,90.2
2023-02-24T05:43:11.782Z,90.1
2023-02-24T06:03:11.802Z,90.6
2023-02-24T06:23:12.562Z,91.2
2023-02-24T06:43:12.006Z,91.4
2023-02-24T07:03:11.987Z,91.3
2023-02-24T07:23:11.864Z,90.8
2023-02-24T07:43:11.925Z,90
2023-02-24T08:03:12.018Z,89.6
2023-02-24T08:23:12.029Z,89
2023-02-24T08:43:12.084Z,87.9
2023-02-24T09:03:12.133Z,86.2
2023-02-24T09:23:12.052Z,84.2
2023-02-24T09:43:12.235Z,82.9
2023-02-24T10:03:12.248Z,83.5
2023-02-24T10:23:12.353Z,79.4
2023-02-24T10:43:12.279Z,77
2023-02-24T11:03:13.041Z,75.8
2023-02-24T11:23:12.560Z,79.7
2023-02-24T11:43:12.396Z,68.6
2023-02-24T12:03:12.531Z,64.4
2023-02-24T12:43:12.588Z,62.5
2023-02-24T13:03:12.557Z,57.6
2023-02-24T13:23:12.651Z,61.2
2023-02-24T13:43:12.667Z,60.8
2023-02-24T14:03:12.686Z,61.9
2023-02-24T14:23:12.860Z,60.7
2023-02-24T14:43:13.783Z,60.5
2023-02-24T15:03:12.906Z,61.5
2023-02-24T15:23:12.892Z,62.9
2023-02-24T15:43:12.922Z,65
2023-02-24T16:03:12.968Z,65.6
2023-02-24T16:23:12.941Z,67.1
2023-02-24T16:43:13.050Z,86
2023-02-24T17:03:12.989Z,95.1
2023-02-24T17:23:13.061Z,97.8
2023-02-24T17:43:13.135Z,98.8
2023-02-24T18:03:13.386Z,99.5
2023-02-24T18:23:13.243Z,99.9
2023-02-24T18:43:13.254Z,100
2023-02-24T19:03:13.524Z,100
2023-02-24T19:23:13.373Z,100
2023-02-24T19:43:13.419Z,100
2023-02-24T20:03:13.562Z,100
2023-02-24T20:23:13.542Z,100
2023-02-24T20:43:13.537Z,100
2023-02-24T21:03:13.646Z,100
2023-02-24T21:23:13.659Z,100
2023-02-24T21:43:13.959Z,100
2023-02-24T22:03:13.891Z,100
2023-02-24T22:23:13.864Z,100
2023-02-24T22:43:15.042Z,100
2023-02-24T23:03:13.980Z,100
2023-02-24T23:23:13.999Z,100
2023-02-24T23:43:13.962Z,100
